KBVO/BVO METAR and TAF weather

Enter ICAO airport designator
Station Type Date Time Source
KBVO METAR 2019/06/17 13:11 UTC NOAA

KBVO 171311Z AUTO 02006KT 6SM -RA BR BKN011 OVC019 20/19 A2992 RMK AO2 RAB09 P0000 T02000189


Station Type Date Time Source
KBVO Decoded METAR 2019/06/17 13:11 UTC NOAA

BARTLESVILLE MUNICIPAL AIRPORT , OK, United States (KBVO) 36-46N 96-01W 210M
Jun 17, 2019 - 09:11 AM EDT / 2019.06.17 1311 UTC
Wind: from the NNE (020 degrees) at 7 MPH (6 KT):0
Visibility: 6 mile(s):0
Sky conditions: overcast
Weather: light rain; mist
Precipitation last hour: A trace
Temperature: 68.0 F (20.0 C)
Dew Point: 66.0 F (18.9 C)
Relative Humidity: 93%
Pressure (altimeter): 29.92 in. Hg (1013 hPa)
ob: KBVO 171311Z AUTO 02006KT 6SM -RA BR BKN011 OVC019 20/19 A2992 RMK AO2 RAB09 P0000 T02000189
cycle: 13

Station Type Date Time Source
KBVO TAF 2019/06/17 12:24 UTC NOAA

TAF KBVO 171121Z 1712/1812 VRB03KT P6SM VCSH OVC015
TEMPO 1712/1716 3SM -RA BR BKN009
FM171600 05005KT P6SM VCSH BKN025
FM172100 05005KT P6SM VCSH BKN040
FM180100 00000KT P6SM BKN250
FM180900 00000KT 2SM BR SCT005

Example: see airport list